Time;durP1;ratioP1;P1;durP2;ratioP2;P2;SDS_P1;SDS_P2;PMS_P1;PMS_P2;Temp;Humidity;BMP_temperature;BMP_pressure;BME280_temperature;BME280_humidity;BME280_pressure;Samples;Min_cycle;Max_cycle;Signal;HPM_P1;HPM_P2
2022/04/23 00:00:36;;;;;;;26.47;23.40;;;;;;;;;;5096206;28;20205;-69
2022/04/23 00:03:03;;;;;;;27.03;22.70;;;;;;;;;;5096258;28;20454;-69
2022/04/23 00:05:31;;;;;;;24.23;21.57;;;;;;;;;;5095972;28;20450;-70
2022/04/23 00:07:58;;;;;;;29.88;26.10;;;;;;;;;;5096328;28;20913;-69
2022/04/23 00:10:27;;;;;;;25.43;21.60;;;;;;;;;;5096478;28;20232;-70
2022/04/23 00:12:54;;;;;;;30.10;23.70;;;;;;;;;;5096080;28;20443;-69
2022/04/23 00:15:25;;;;;;;27.97;22.93;;;;;;;;;;5096011;28;20443;-69
2022/04/23 00:17:52;;;;;;;28.03;24.80;;;;;;;;;;5096380;28;20522;-70
2022/04/23 00:20:21;;;;;;;28.83;23.50;;;;;;;;;;5095962;28;20497;-69
2022/04/23 00:22:49;;;;;;;28.15;23.98;;;;;;;;;;5095825;28;20451;-69
2022/04/23 00:25:16;;;;;;;27.27;24.43;;;;;;;;;;5096450;28;20527;-69
2022/04/23 00:27:44;;;;;;;24.67;22.07;;;;;;;;;;5095799;28;20439;-69
2022/04/23 00:30:12;;;;;;;28.05;23.08;;;;;;;;;;5095557;28;20444;-69
2022/04/23 00:32:39;;;;;;;26.57;23.67;;;;;;;;;;5095689;28;20208;-69
2022/04/23 00:35:06;;;;;;;28.00;23.70;;;;;;;;;;5096336;28;20451;-69
2022/04/23 00:37:33;;;;;;;26.30;23.70;;;;;;;;;;5095628;28;20444;-70
2022/04/23 00:40:05;;;;;;;25.63;22.80;;;;;;;;;;5095598;28;20566;-69
2022/04/23 00:42:32;;;;;;;26.93;22.70;;;;;;;;;;5095482;28;20436;-70
2022/04/23 00:45:01;;;;;;;29.43;22.80;;;;;;;;;;5096002;28;20450;-69
2022/04/23 00:47:28;;;;;;;26.40;23.20;;;;;;;;;;5096074;28;20475;-70
2022/04/23 00:49:55;;;;;;;29.93;23.33;;;;;;;;;;5095711;28;20473;-70
2022/04/23 00:52:24;;;;;;;26.10;23.23;;;;;;;;;;5096343;28;20439;-70
2022/04/23 00:54:51;;;;;;;26.73;23.77;;;;;;;;;;5095313;28;20856;-70
2022/04/23 00:57:19;;;;;;;25.30;22.63;;;;;;;;;;5095479;28;20573;-71
2022/04/23 00:59:47;;;;;;;25.00;22.30;;;;;;;;;;5095211;28;20507;-70
2022/04/23 01:02:15;;;;;;;28.45;23.02;;;;;;;;;;5095361;28;20450;-70
2022/04/23 01:04:42;;;;;;;28.00;23.80;;;;;;;;;;5094857;28;20197;-70
2022/04/23 01:07:11;;;;;;;27.17;23.60;;;;;;;;;;5094756;28;20448;-70
2022/04/23 01:09:38;;;;;;;27.20;22.87;;;;;;;;;;5094406;28;20439;-70
2022/04/23 01:12:06;;;;;;;26.60;23.43;;;;;;;;;;5095001;28;20444;-70
2022/04/23 01:14:33;;;;;;;30.55;22.67;;;;;;;;;;5094611;28;20440;-70
2022/04/23 01:17:00;;;;;;;25.60;21.80;;;;;;;;;;5095043;28;20288;-70
2022/04/23 01:19:29;;;;;;;27.07;23.57;;;;;;;;;;5094852;28;20471;-70
2022/04/23 01:21:58;;;;;;;25.42;22.13;;;;;;;;;;5094573;28;20478;-70
2022/04/23 01:24:26;;;;;;;28.40;23.60;;;;;;;;;;5094910;28;20189;-68
2022/04/23 01:26:53;;;;;;;26.58;21.95;;;;;;;;;;5094806;28;20908;-70
2022/04/23 01:29:20;;;;;;;24.00;21.10;;;;;;;;;;5094346;28;20201;-70
2022/04/23 01:31:47;;;;;;;28.70;23.60;;;;;;;;;;5094284;28;20194;-70
2022/04/23 01:34:15;;;;;;;25.10;21.30;;;;;;;;;;5094231;28;20931;-69
2022/04/23 01:36:42;;;;;;;25.17;22.43;;;;;;;;;;5094594;28;20471;-69
2022/04/23 01:39:11;;;;;;;23.17;20.73;;;;;;;;;;5094029;28;20479;-70
2022/04/23 01:41:38;;;;;;;25.33;22.47;;;;;;;;;;5094532;28;20446;-70
2022/04/23 01:44:05;;;;;;;24.80;22.07;;;;;;;;;;5094469;28;20439;-69
2022/04/23 01:46:32;;;;;;;26.27;22.50;;;;;;;;;;5094460;28;20482;-70
2022/04/23 01:48:59;;;;;;;25.20;21.35;;;;;;;;;;5094017;28;20450;-70
2022/04/23 01:51:27;;;;;;;24.17;21.67;;;;;;;;;;5094361;28;20197;-70
2022/04/23 01:53:54;;;;;;;23.90;21.40;;;;;;;;;;5093883;28;20442;-70
2022/04/23 01:56:23;;;;;;;25.23;21.52;;;;;;;;;;5094080;28;20436;-70
2022/04/23 01:58:50;;;;;;;28.13;21.80;;;;;;;;;;5093751;28;20676;-70
2022/04/23 02:01:18;;;;;;;24.48;21.13;;;;;;;;;;5094251;28;20439;-70
2022/04/23 02:03:46;;;;;;;24.00;21.40;;;;;;;;;;5094078;28;20197;-70
2022/04/23 02:06:13;;;;;;;24.10;20.67;;;;;;;;;;5094179;28;20470;-69
2022/04/23 02:08:40;;;;;;;28.53;21.10;;;;;;;;;;5093909;28;20539;-70
2022/04/23 02:11:07;;;;;;;24.00;20.83;;;;;;;;;;5093723;28;20440;-70
2022/04/23 02:13:36;;;;;;;23.00;20.70;;;;;;;;;;5093919;28;20451;-69
2022/04/23 02:16:04;;;;;;;24.73;20.60;;;;;;;;;;5093738;28;20444;-69
2022/04/23 02:18:32;;;;;;;26.20;21.67;;;;;;;;;;5094509;28;20448;-69
2022/04/23 02:20:59;;;;;;;27.80;22.97;;;;;;;;;;5092843;28;20490;-69
2022/04/23 02:23:28;;;;;;;22.63;20.23;;;;;;;;;;5093484;28;20446;-68
2022/04/23 02:25:55;;;;;;;24.70;22.10;;;;;;;;;;5094234;28;20446;-69
2022/04/23 02:28:23;;;;;;;24.90;21.87;;;;;;;;;;5093546;28;20538;-69
2022/04/23 02:30:51;;;;;;;24.10;21.53;;;;;;;;;;5093706;28;20457;-69
2022/04/23 02:33:19;;;;;;;24.30;21.70;;;;;;;;;;5093784;28;20443;-69
2022/04/23 02:35:47;;;;;;;23.70;21.30;;;;;;;;;;5093630;28;20194;-69
2022/04/23 02:38:17;;;;;;;24.33;20.83;;;;;;;;;;5093418;28;20203;-68
2022/04/23 02:40:44;;;;;;;24.53;20.67;;;;;;;;;;5093235;28;21026;-68
2022/04/23 02:43:12;;;;;;;21.88;19.67;;;;;;;;;;5093620;28;20450;-69
2022/04/23 02:45:39;;;;;;;25.67;23.02;;;;;;;;;;5093095;28;20265;-69
2022/04/23 02:48:09;;;;;;;23.13;20.63;;;;;;;;;;5093963;28;20224;-69
2022/04/23 02:50:37;;;;;;;22.52;20.20;;;;;;;;;;5093306;28;20186;-69
2022/04/23 02:53:05;;;;;;;22.40;20.02;;;;;;;;;;5093982;28;20250;-69
2022/04/23 02:55:33;;;;;;;23.55;21.15;;;;;;;;;;5093693;28;20189;-69
2022/04/23 02:58:02;;;;;;;23.75;21.27;;;;;;;;;;5094027;28;20196;-70
2022/04/23 03:00:29;;;;;;;25.52;22.25;;;;;;;;;;5093492;28;20255;-69
2022/04/23 03:02:56;;;;;;;25.00;22.15;;;;;;;;;;5093795;28;20197;-69
2022/04/23 03:05:26;;;;;;;27.27;22.35;;;;;;;;;;5093349;28;20643;-69
2022/04/23 03:07:53;;;;;;;23.42;20.92;;;;;;;;;;5093730;28;20204;-69
2022/04/23 03:10:22;;;;;;;23.10;20.77;;;;;;;;;;5093670;28;20308;-69
2022/04/23 03:12:49;;;;;;;23.08;20.70;;;;;;;;;;5093792;28;20445;-69
2022/04/23 03:15:17;;;;;;;23.17;20.10;;;;;;;;;;5093274;28;20203;-69
2022/04/23 03:17:45;;;;;;;23.90;20.73;;;;;;;;;;5093986;28;20191;-70
2022/04/23 03:20:13;;;;;;;24.35;21.73;;;;;;;;;;5093794;28;20479;-70
2022/04/23 03:22:42;;;;;;;23.42;20.08;;;;;;;;;;5093915;28;20197;-70
2022/04/23 03:25:10;;;;;;;23.08;20.58;;;;;;;;;;5093323;28;20200;-70
2022/04/23 03:27:37;;;;;;;24.85;21.98;;;;;;;;;;5093227;28;20193;-69
2022/04/23 03:30:05;;;;;;;23.53;20.87;;;;;;;;;;5092815;28;20650;-69
2022/04/23 03:32:33;;;;;;;23.98;20.52;;;;;;;;;;5095439;28;20431;-69
2022/04/23 03:35:00;;;;;;;24.33;21.73;;;;;;;;;;5096551;28;20204;-69
2022/04/23 03:37:28;;;;;;;26.98;22.40;;;;;;;;;;5097100;28;20217;-69
2022/04/23 03:39:56;;;;;;;22.70;20.30;;;;;;;;;;5096696;28;20267;-69
2022/04/23 03:42:23;;;;;;;22.90;20.30;;;;;;;;;;5096760;28;20467;-69
2022/04/23 03:44:50;;;;;;;23.17;20.70;;;;;;;;;;5096567;28;20467;-69
2022/04/23 03:47:18;;;;;;;22.83;20.53;;;;;;;;;;5097197;28;20232;-69
2022/04/23 03:49:46;;;;;;;22.50;20.10;;;;;;;;;;5096346;28;20443;-69
2022/04/23 03:52:13;;;;;;;24.97;20.27;;;;;;;;;;5096335;28;20474;-69
2022/04/23 03:54:41;;;;;;;22.50;20.17;;;;;;;;;;5096882;28;20443;-70
2022/04/23 03:57:09;;;;;;;21.58;19.27;;;;;;;;;;5096479;28;20193;-69
2022/04/23 03:59:38;;;;;;;21.90;19.58;;;;;;;;;;5096328;28;20288;-69
2022/04/23 04:02:06;;;;;;;23.63;19.53;;;;;;;;;;5096061;28;20243;-69
2022/04/23 04:04:33;;;;;;;21.80;19.50;;;;;;;;;;5096582;28;20447;-69
2022/04/23 04:07:00;;;;;;;22.40;19.87;;;;;;;;;;5095971;28;20966;-69
2022/04/23 04:09:28;;;;;;;23.33;20.58;;;;;;;;;;5096262;28;20439;-69
2022/04/23 04:12:06;;;;;;;22.40;18.87;;;;;;;;;;5096107;28;20204;-71
2022/04/23 04:14:36;;;;;;;22.20;19.73;;;;;;;;;;5096491;28;20467;-67
2022/04/23 04:17:04;;;;;;;23.40;19.20;;;;;;;;;;5095743;28;20450;-67
2022/04/23 04:19:32;;;;;;;22.75;19.38;;;;;;;;;;5096561;28;20301;-67
2022/04/23 04:21:59;;;;;;;21.97;19.57;;;;;;;;;;5096067;28;20249;-67
2022/04/23 04:24:27;;;;;;;21.13;18.85;;;;;;;;;;5094445;28;20450;-68
2022/04/23 04:26:54;;;;;;;21.88;19.48;;;;;;;;;;5095565;28;20199;-67
2022/04/23 04:29:22;;;;;;;21.98;19.63;;;;;;;;;;5094798;28;20292;-67
2022/04/23 04:31:51;;;;;;;21.63;19.40;;;;;;;;;;5095268;28;20197;-67
2022/04/23 04:34:19;;;;;;;21.93;18.40;;;;;;;;;;5095784;28;20770;-67
2022/04/23 04:36:47;;;;;;;23.23;19.30;;;;;;;;;;5095231;28;20514;-67
2022/04/23 04:39:14;;;;;;;21.25;18.88;;;;;;;;;;5095476;28;20450;-67
2022/04/23 04:41:42;;;;;;;21.87;19.03;;;;;;;;;;5094987;28;20217;-67
2022/04/23 04:44:09;;;;;;;22.70;19.30;;;;;;;;;;5094550;28;20526;-67
2022/04/23 04:46:38;;;;;;;25.45;21.15;;;;;;;;;;5095515;28;20982;-67
2022/04/23 04:49:07;;;;;;;22.97;20.47;;;;;;;;;;5095167;28;20204;-67
2022/04/23 04:51:36;;;;;;;21.85;19.58;;;;;;;;;;5095323;28;20438;-67
2022/04/23 04:54:03;;;;;;;19.50;17.35;;;;;;;;;;5095413;28;20224;-67
2022/04/23 04:56:30;;;;;;;24.17;20.02;;;;;;;;;;5094953;28;20283;-67
2022/04/23 04:58:57;;;;;;;25.05;19.15;;;;;;;;;;5095117;28;20204;-67
2022/04/23 05:01:25;;;;;;;21.13;18.92;;;;;;;;;;5094810;28;20315;-67
2022/04/23 05:03:53;;;;;;;22.17;19.83;;;;;;;;;;5095189;28;20195;-68
2022/04/23 05:06:22;;;;;;;22.38;19.55;;;;;;;;;;5095032;28;20196;-67
2022/04/23 05:08:49;;;;;;;22.05;19.77;;;;;;;;;;5095255;28;20193;-68
2022/04/23 05:11:16;;;;;;;22.83;19.98;;;;;;;;;;5094973;28;20216;-67
2022/04/23 05:13:43;;;;;;;21.75;19.45;;;;;;;;;;5095217;28;20200;-68
2022/04/23 05:16:10;;;;;;;24.20;19.90;;;;;;;;;;5095241;28;20193;-67
2022/04/23 05:18:37;;;;;;;25.25;20.95;;;;;;;;;;5094589;28;20662;-67
2022/04/23 05:21:05;;;;;;;23.38;20.00;;;;;;;;;;5094378;28;20307;-67
2022/04/23 05:23:34;;;;;;;24.75;20.90;;;;;;;;;;5095175;28;20190;-67
2022/04/23 05:26:01;;;;;;;23.10;20.70;;;;;;;;;;5094656;28;20201;-68
2022/04/23 05:28:28;;;;;;;22.80;19.60;;;;;;;;;;5095037;28;20481;-67
2022/04/23 05:30:56;;;;;;;22.90;20.40;;;;;;;;;;5094676;28;20450;-67
2022/04/23 05:33:23;;;;;;;23.63;19.30;;;;;;;;;;5094498;28;20639;-67
2022/04/23 05:35:50;;;;;;;20.75;18.60;;;;;;;;;;5094376;28;20450;-67
2022/04/23 05:38:20;;;;;;;25.77;19.98;;;;;;;;;;5094004;28;20196;-67
2022/04/23 05:40:49;;;;;;;26.17;20.87;;;;;;;;;;5093802;28;20675;-67
2022/04/23 05:43:16;;;;;;;23.30;20.90;;;;;;;;;;5094563;28;20442;-67
2022/04/23 05:45:44;;;;;;;21.30;19.02;;;;;;;;;;5094184;28;20475;-67
2022/04/23 05:48:11;;;;;;;25.03;19.60;;;;;;;;;;5094464;28;20189;-67
2022/04/23 05:50:39;;;;;;;22.40;18.00;;;;;;;;;;5094601;28;20458;-67
2022/04/23 05:53:06;;;;;;;24.10;20.03;;;;;;;;;;5093756;28;20470;-68
2022/04/23 05:55:34;;;;;;;23.73;19.33;;;;;;;;;;5093578;28;20445;-67
2022/04/23 05:58:03;;;;;;;21.20;18.97;;;;;;;;;;5093895;28;20478;-67
2022/04/23 06:00:30;;;;;;;21.77;18.98;;;;;;;;;;5093805;28;20482;-67
2022/04/23 06:02:57;;;;;;;21.10;18.80;;;;;;;;;;5094400;28;20193;-67
2022/04/23 06:05:24;;;;;;;24.90;18.30;;;;;;;;;;5094204;28;20449;-67
2022/04/23 06:07:52;;;;;;;21.87;18.77;;;;;;;;;;5093682;28;20440;-67
2022/04/23 06:10:19;;;;;;;21.97;18.37;;;;;;;;;;5093679;28;20959;-67
2022/04/23 06:12:46;;;;;;;20.53;18.30;;;;;;;;;;5093827;28;20920;-67
2022/04/23 06:15:14;;;;;;;22.67;18.37;;;;;;;;;;5093537;28;20450;-67
2022/04/23 06:17:42;;;;;;;19.57;17.53;;;;;;;;;;5093627;28;20443;-67
2022/04/23 06:20:10;;;;;;;22.50;17.23;;;;;;;;;;5093690;28;20443;-67
2022/04/23 06:22:37;;;;;;;26.97;18.87;;;;;;;;;;5093624;28;20543;-67
2022/04/23 06:25:05;;;;;;;22.23;19.08;;;;;;;;;;5093384;28;20527;-67
2022/04/23 06:27:33;;;;;;;19.37;16.87;;;;;;;;;;5093684;28;20232;-67
2022/04/23 06:30:00;;;;;;;21.07;17.13;;;;;;;;;;5093811;28;20436;-67
2022/04/23 06:32:29;;;;;;;22.60;19.00;;;;;;;;;;5093433;28;20443;-67
2022/04/23 06:34:57;;;;;;;19.10;16.07;;;;;;;;;;5093667;28;20528;-72
2022/04/23 06:37:24;;;;;;;21.77;17.47;;;;;;;;;;5093482;28;20439;-67
2022/04/23 06:39:51;;;;;;;20.33;17.33;;;;;;;;;;5093604;28;20451;-67
2022/04/23 06:42:18;;;;;;;19.23;16.00;;;;;;;;;;5093022;28;20468;-68
2022/04/23 06:44:46;;;;;;;18.15;16.20;;;;;;;;;;5094430;28;20468;-72
2022/04/23 06:47:15;;;;;;;21.65;16.08;;;;;;;;;;5093395;28;20229;-73
2022/04/23 06:49:44;;;;;;;19.38;16.15;;;;;;;;;;5093522;28;20198;-73
2022/04/23 06:52:11;;;;;;;21.92;18.08;;;;;;;;;;5093015;28;20448;-72
2022/04/23 06:54:38;;;;;;;18.00;14.37;;;;;;;;;;5093352;28;20196;-72
2022/04/23 06:57:06;;;;;;;19.00;16.13;;;;;;;;;;5093152;28;20457;-73
2022/04/23 06:59:33;;;;;;;19.00;16.33;;;;;;;;;;5093466;28;20435;-72
2022/04/23 07:02:02;;;;;;;21.17;17.57;;;;;;;;;;5093054;28;20470;-72
2022/04/23 07:04:29;;;;;;;21.30;17.20;;;;;;;;;;5093010;28;20504;-72
2022/04/23 07:06:58;;;;;;;20.20;16.30;;;;;;;;;;5094948;28;20438;-72
2022/04/23 07:09:25;;;;;;;22.43;16.37;;;;;;;;;;5097258;28;20435;-73
2022/04/23 07:11:52;;;;;;;19.00;15.50;;;;;;;;;;5097330;28;20447;-72
2022/04/23 07:14:20;;;;;;;20.53;15.60;;;;;;;;;;5097159;28;20198;-72
2022/04/23 07:16:48;;;;;;;17.60;15.70;;;;;;;;;;5097386;28;20492;-72
2022/04/23 07:19:15;;;;;;;21.07;17.17;;;;;;;;;;5097085;28;20467;-72
2022/04/23 07:21:43;;;;;;;22.25;16.30;;;;;;;;;;5096740;28;20506;-72
2022/04/23 07:24:13;;;;;;;21.30;16.92;;;;;;;;;;5096823;28;20690;-72
2022/04/23 07:26:40;;;;;;;20.37;15.50;;;;;;;;;;5097130;28;20194;-72
2022/04/23 07:29:08;;;;;;;24.10;19.00;;;;;;;;;;5096077;28;20438;-73
2022/04/23 07:31:36;;;;;;;21.40;17.83;;;;;;;;;;5096174;28;20953;-72
2022/04/23 07:39:34;;;;;;;22.20;17.57;;;;;;;;;;5096438;28;20423;-72
2022/04/23 07:42:01;;;;;;;23.67;18.07;;;;;;;;;;5096471;28;20475;-73
2022/04/23 07:44:29;;;;;;;22.87;17.60;;;;;;;;;;5096369;28;21013;-72
2022/04/23 07:46:56;;;;;;;26.43;18.67;;;;;;;;;;5096625;28;20532;-72
2022/04/23 07:49:23;;;;;;;22.73;17.50;;;;;;;;;;5096561;28;20523;-73
2022/04/23 07:51:50;;;;;;;22.97;17.77;;;;;;;;;;5096460;28;20447;-72
2022/04/23 07:54:17;;;;;;;24.73;19.30;;;;;;;;;;5096366;28;20444;-71
2022/04/23 07:56:46;;;;;;;23.03;19.67;;;;;;;;;;5096654;28;20427;-70
2022/04/23 07:59:13;;;;;;;25.42;19.50;;;;;;;;;;5096231;28;20797;-67
2022/04/23 08:01:40;;;;;;;26.30;18.90;;;;;;;;;;5096017;28;20236;-67
2022/04/23 08:04:08;;;;;;;24.70;18.13;;;;;;;;;;5096063;28;20442;-67
2022/04/23 08:06:35;;;;;;;26.00;21.43;;;;;;;;;;5096332;28;20808;-68
2022/04/23 08:09:03;;;;;;;22.17;19.67;;;;;;;;;;5096323;28;20451;-70
2022/04/23 08:11:30;;;;;;;31.07;21.93;;;;;;;;;;5096319;28;20432;-69
2022/04/23 08:13:59;;;;;;;26.23;20.33;;;;;;;;;;5096272;28;20439;-70
2022/04/23 08:16:28;;;;;;;28.03;20.57;;;;;;;;;;5095718;28;20454;-70
2022/04/23 08:18:56;;;;;;;24.33;20.20;;;;;;;;;;5095661;28;20791;-70
2022/04/23 08:21:23;;;;;;;27.10;20.17;;;;;;;;;;5095320;28;20992;-70
2022/04/23 08:23:50;;;;;;;25.13;20.67;;;;;;;;;;5095674;28;20818;-70
2022/04/23 08:26:17;;;;;;;26.67;19.73;;;;;;;;;;5095927;28;20436;-70
2022/04/23 08:31:36;;;;;;;25.80;20.70;;;;;;;;;;5075616;28;20918;-70
2022/04/23 08:34:03;;;;;;;26.63;20.87;;;;;;;;;;5095721;28;20459;-69
2022/04/23 08:36:31;;;;;;;27.53;21.20;;;;;;;;;;5095365;28;20475;-70
2022/04/23 08:38:59;;;;;;;22.83;19.80;;;;;;;;;;5095207;28;20443;-70
2022/04/23 08:41:28;;;;;;;23.50;19.17;;;;;;;;;;5095254;28;20502;-70
2022/04/23 08:43:56;;;;;;;22.90;20.40;;;;;;;;;;5095771;28;20906;-70
2022/04/23 08:46:24;;;;;;;24.50;20.30;;;;;;;;;;5095110;28;20479;-70
2022/04/23 08:48:56;;;;;;;28.57;22.80;;;;;;;;;;5095836;28;20446;-70
2022/04/23 08:51:24;;;;;;;25.13;21.87;;;;;;;;;;5095928;28;20444;-69
2022/04/23 08:53:54;;;;;;;26.67;20.53;;;;;;;;;;5095213;28;20464;-69
2022/04/23 08:56:21;;;;;;;27.43;21.00;;;;;;;;;;5095544;28;20437;-69
2022/04/23 08:58:48;;;;;;;25.90;19.90;;;;;;;;;;5095089;28;20456;-70
2022/04/23 09:01:16;;;;;;;24.17;19.83;;;;;;;;;;5094668;28;20447;-70
2022/04/23 09:03:43;;;;;;;26.17;19.47;;;;;;;;;;5094732;28;20513;-70
2022/04/23 09:06:11;;;;;;;25.90;19.40;;;;;;;;;;5095005;28;20445;-70
2022/04/23 09:08:39;;;;;;;28.70;20.70;;;;;;;;;;5094961;28;20440;-71
2022/04/23 09:11:06;;;;;;;26.67;19.17;;;;;;;;;;5094800;28;20444;-71
2022/04/23 09:13:34;;;;;;;25.40;20.47;;;;;;;;;;5094633;28;20475;-70
2022/04/23 09:24:45;;;;;;;26.63;19.93;;;;;;;;;;5094458;28;20420;-71
2022/04/23 09:27:12;;;;;;;22.47;19.07;;;;;;;;;;5094900;28;20519;-71
2022/04/23 09:29:39;;;;;;;31.33;21.27;;;;;;;;;;5094068;28;20464;-70
2022/04/23 09:32:10;;;;;;;22.33;18.70;;;;;;;;;;5094986;28;20467;-71
2022/04/23 09:34:41;;;;;;;23.47;19.10;;;;;;;;;;5094493;28;20942;-71
2022/04/23 09:37:09;;;;;;;25.10;18.50;;;;;;;;;;5094285;28;20425;-71
2022/04/23 09:39:38;;;;;;;22.60;20.10;;;;;;;;;;5094148;28;20442;-71
2022/04/23 09:42:19;;;;;;;23.20;19.80;;;;;;;;;;5094082;28;21012;-70
2022/04/23 09:44:46;;;;;;;22.33;19.37;;;;;;;;;;5094304;28;20986;-71
2022/04/23 09:47:29;;;;;;;30.30;19.30;;;;;;;;;;5094546;28;20484;-71
2022/04/23 09:49:56;;;;;;;27.73;18.57;;;;;;;;;;5094061;28;20922;-71
2022/04/23 09:52:29;;;;;;;23.43;17.90;;;;;;;;;;5094418;28;20783;-70
2022/04/23 09:54:57;;;;;;;21.57;16.70;;;;;;;;;;5094435;28;20927;-71
2022/04/23 09:57:25;;;;;;;19.87;16.47;;;;;;;;;;5094091;28;21032;-71
2022/04/23 09:59:52;;;;;;;18.83;16.77;;;;;;;;;;5094311;28;20471;-71
2022/04/23 10:02:20;;;;;;;19.33;16.60;;;;;;;;;;5094104;28;20482;-71
2022/04/23 10:04:47;;;;;;;20.03;15.73;;;;;;;;;;5093835;28;20433;-72
2022/04/23 10:07:15;;;;;;;18.63;13.87;;;;;;;;;;5093946;28;20475;-72
2022/04/23 10:09:46;;;;;;;23.07;13.80;;;;;;;;;;5094339;28;20439;-71
2022/04/23 10:12:17;;;;;;;19.03;15.10;;;;;;;;;;5093657;28;20527;-71
2022/04/23 10:14:47;;;;;;;20.40;16.67;;;;;;;;;;5093977;28;20410;-71
2022/04/23 10:17:20;;;;;;;17.80;14.87;;;;;;;;;;5093388;28;20449;-71
2022/04/23 10:19:48;;;;;;;17.60;15.87;;;;;;;;;;5093695;28;20463;-71
2022/04/23 10:22:19;;;;;;;16.60;14.80;;;;;;;;;;5093708;28;20521;-71
2022/04/23 10:24:54;;;;;;;16.20;14.50;;;;;;;;;;5094832;28;20473;-71
2022/04/23 10:27:25;;;;;;;17.93;16.03;;;;;;;;;;5093790;28;20432;-71
2022/04/23 10:29:55;;;;;;;15.87;13.40;;;;;;;;;;5094061;28;20568;-72
2022/04/23 10:32:22;;;;;;;18.90;15.30;;;;;;;;;;5093785;28;20433;-71
2022/04/23 10:34:50;;;;;;;15.60;14.03;;;;;;;;;;5093399;28;20438;-71
2022/04/23 10:37:18;;;;;;;17.63;14.37;;;;;;;;;;5093641;28;20445;-72
2022/04/23 10:39:46;;;;;;;17.53;15.27;;;;;;;;;;5093337;28;20528;-71
2022/04/23 10:42:15;;;;;;;16.77;14.97;;;;;;;;;;5095895;28;20473;-71
2022/04/23 10:44:43;;;;;;;15.30;13.67;;;;;;;;;;5097521;28;20445;-71
2022/04/23 10:47:16;;;;;;;15.97;13.57;;;;;;;;;;5097187;28;20993;-71
2022/04/23 10:49:44;;;;;;;15.27;13.77;;;;;;;;;;5098148;28;20473;-71
2022/04/23 10:52:12;;;;;;;15.50;13.90;;;;;;;;;;5097549;28;20450;-71
2022/04/23 10:54:56;;;;;;;15.57;14.07;;;;;;;;;;5097326;28;20448;-70
2022/04/23 10:57:25;;;;;;;18.33;15.60;;;;;;;;;;5097498;28;20501;-70
2022/04/23 10:59:52;;;;;;;17.00;13.23;;;;;;;;;;5097797;28;20692;-71
2022/04/23 11:02:31;;;;;;;16.20;14.10;;;;;;;;;;5097483;28;20969;-71
2022/04/23 11:13:26;;;;;;;16.93;15.13;;;;;;;;;;5097389;28;20520;-70
2022/04/23 11:16:14;;;;;;;24.13;16.37;;;;;;;;;;5097341;28;20537;-70
2022/04/23 11:18:42;;;;;;;22.13;14.80;;;;;;;;;;5097478;28;20451;-71
2022/04/23 11:21:11;;;;;;;16.10;13.60;;;;;;;;;;5097050;28;20435;-71
2022/04/23 11:23:39;;;;;;;14.27;12.33;;;;;;;;;;5096845;28;20472;-71
2022/04/23 11:26:07;;;;;;;14.67;13.10;;;;;;;;;;5096308;28;20803;-71
2022/04/23 11:28:36;;;;;;;17.70;15.20;;;;;;;;;;5096247;28;20452;-71
2022/04/23 11:31:13;;;;;;;15.47;13.87;;;;;;;;;;5096490;28;20602;-71
2022/04/23 11:33:51;;;;;;;13.23;11.93;;;;;;;;;;5096588;28;20451;-71
2022/04/23 11:36:18;;;;;;;15.53;13.20;;;;;;;;;;5096405;28;20425;-71
2022/04/23 11:38:46;;;;;;;18.67;15.27;;;;;;;;;;5096948;28;20498;-71
2022/04/23 11:41:26;;;;;;;19.73;17.60;;;;;;;;;;5096808;28;20446;-71
2022/04/23 11:43:55;;;;;;;17.80;13.00;;;;;;;;;;5096716;28;20477;-71
2022/04/23 11:46:23;;;;;;;15.30;13.27;;;;;;;;;;5096299;28;20476;-71
2022/04/23 11:48:51;;;;;;;16.10;12.30;;;;;;;;;;5096220;28;20440;-71
2022/04/23 11:51:20;;;;;;;13.40;11.73;;;;;;;;;;5096329;28;20448;-71
2022/04/23 11:53:48;;;;;;;13.10;11.80;;;;;;;;;;5095977;28;20449;-71
2022/04/23 11:56:21;;;;;;;13.37;11.67;;;;;;;;;;5096263;28;20435;-71
2022/04/23 11:58:48;;;;;;;15.13;13.57;;;;;;;;;;5096522;28;20458;-72
2022/04/23 12:01:19;;;;;;;28.80;23.30;;;;;;;;;;5096439;28;20441;-71
2022/04/23 12:03:49;;;;;;;14.13;12.73;;;;;;;;;;5096204;28;20470;-71
2022/04/23 12:06:16;;;;;;;14.53;13.03;;;;;;;;;;5096135;28;20523;-71
2022/04/23 12:08:43;;;;;;;14.43;12.93;;;;;;;;;;5096255;28;20445;-71
2022/04/23 12:11:21;;;;;;;15.07;12.80;;;;;;;;;;5095857;28;20449;-71
2022/04/23 12:13:48;;;;;;;15.13;13.53;;;;;;;;;;5095758;28;20797;-71
2022/04/23 12:16:30;;;;;;;13.57;12.27;;;;;;;;;;5095109;28;20948;-71
2022/04/23 12:19:01;;;;;;;15.80;13.73;;;;;;;;;;5096085;28;20424;-71
2022/04/23 12:21:29;;;;;;;13.80;12.13;;;;;;;;;;5096207;28;20440;-71
2022/04/23 12:23:56;;;;;;;17.57;11.73;;;;;;;;;;5095221;28;21014;-71
2022/04/23 12:26:24;;;;;;;13.70;11.27;;;;;;;;;;5095676;28;20485;-72
2022/04/23 12:43:13;;;;;;;13.00;11.70;;;;;;;;;;5095352;28;20546;-71
2022/04/23 12:45:41;;;;;;;14.80;13.03;;;;;;;;;;5085140;28;20529;-71
2022/04/23 12:48:12;;;;;;;40.93;30.43;;;;;;;;;;5095449;28;20778;-71
2022/04/23 12:50:39;;;;;;;33.13;23.03;;;;;;;;;;5095483;28;20925;-71
2022/04/23 12:53:06;;;;;;;57.43;45.43;;;;;;;;;;5094465;28;20443;-71
2022/04/23 12:55:37;;;;;;;21.03;18.67;;;;;;;;;;5094973;28;20850;-71
2022/04/23 12:58:08;;;;;;;20.10;17.90;;;;;;;;;;5094753;28;20441;-71
2022/04/23 13:00:36;;;;;;;36.00;26.90;;;;;;;;;;5095131;28;20797;-71
2022/04/23 13:03:15;;;;;;;15.97;14.47;;;;;;;;;;5095081;28;20900;-71
2022/04/23 13:05:43;;;;;;;18.87;16.67;;;;;;;;;;5094702;28;20960;-71
2022/04/23 13:10:55;;;;;;;33.23;16.80;;;;;;;;;;5094798;28;20453;-71
2022/04/23 13:13:23;;;;;;;44.90;18.00;;;;;;;;;;5094135;28;20446;-71
2022/04/23 13:15:50;;;;;;;15.30;11.30;;;;;;;;;;5095111;28;20448;-69
2022/04/23 13:18:17;;;;;;;12.27;11.13;;;;;;;;;;5094346;28;20479;-71
2022/04/23 13:20:46;;;;;;;12.40;11.10;;;;;;;;;;5095096;28;20476;-71
2022/04/23 13:23:13;;;;;;;19.13;14.57;;;;;;;;;;5094625;28;20480;-71
2022/04/23 13:25:41;;;;;;;14.17;12.77;;;;;;;;;;5094293;28;20441;-71
2022/04/23 13:28:08;;;;;;;14.17;12.97;;;;;;;;;;5094638;28;20535;-72
2022/04/23 13:30:36;;;;;;;13.10;12.00;;;;;;;;;;5094252;28;20494;-72
2022/04/23 13:33:03;;;;;;;13.10;11.80;;;;;;;;;;5093609;28;20445;-71
2022/04/23 13:35:31;;;;;;;12.87;11.77;;;;;;;;;;5094173;28;20503;-71
2022/04/23 13:38:00;;;;;;;11.90;10.80;;;;;;;;;;5094196;28;20442;-72
2022/04/23 13:40:27;;;;;;;19.30;10.50;;;;;;;;;;5094571;28;20448;-72
2022/04/23 13:42:54;;;;;;;11.53;10.53;;;;;;;;;;5094456;28;20898;-71
2022/04/23 13:45:21;;;;;;;11.00;9.23;;;;;;;;;;5093673;28;20472;-70
2022/04/23 13:47:52;;;;;;;10.80;9.80;;;;;;;;;;5094242;28;20430;-70
2022/04/23 13:50:20;;;;;;;13.93;11.10;;;;;;;;;;5093829;28;20433;-71
2022/04/23 13:52:47;;;;;;;21.33;18.87;;;;;;;;;;5092543;28;21039;-70
2022/04/23 13:55:15;;;;;;;14.33;12.93;;;;;;;;;;5093581;28;20477;-71
2022/04/23 13:57:43;;;;;;;11.50;10.40;;;;;;;;;;5093429;28;20928;-70
2022/04/23 14:00:10;;;;;;;13.80;12.20;;;;;;;;;;5093774;28;20495;-71
2022/04/23 14:10:54;;;;;;;11.17;10.07;;;;;;;;;;5093708;28;20412;-71
2022/04/23 14:13:21;;;;;;;9.80;8.90;;;;;;;;;;5093499;28;20929;-72
2022/04/23 14:15:49;;;;;;;10.67;9.67;;;;;;;;;;5093264;28;20537;-71
2022/04/23 14:18:16;;;;;;;9.90;9.00;;;;;;;;;;5093508;28;20456;-71
2022/04/23 14:20:43;;;;;;;9.23;8.53;;;;;;;;;;5093606;28;20540;-71
2022/04/23 14:23:10;;;;;;;10.40;9.40;;;;;;;;;;5093153;28;20492;-71
2022/04/23 14:25:40;;;;;;;10.00;9.20;;;;;;;;;;5093307;28;20442;-71
2022/04/23 14:28:08;;;;;;;9.77;8.87;;;;;;;;;;5093307;28;20546;-71
2022/04/23 14:30:36;;;;;;;23.53;18.60;;;;;;;;;;5093186;28;20441;-71
2022/04/23 14:33:03;;;;;;;14.03;10.43;;;;;;;;;;5092977;28;20807;-71
2022/04/23 14:35:31;;;;;;;13.03;11.10;;;;;;;;;;5093008;28;20441;-71
2022/04/23 14:37:58;;;;;;;15.43;10.20;;;;;;;;;;5092546;28;20962;-71
2022/04/23 14:40:25;;;;;;;15.43;13.63;;;;;;;;;;5093256;28;20445;-71
2022/04/23 14:42:54;;;;;;;15.10;10.00;;;;;;;;;;5093292;28;20963;-71
2022/04/23 14:45:24;;;;;;;7.13;6.43;;;;;;;;;;5092526;28;20442;-71
2022/04/23 14:47:53;;;;;;;22.67;10.50;;;;;;;;;;5092893;28;20941;-71
2022/04/23 14:50:20;;;;;;;31.87;10.13;;;;;;;;;;5092965;28;20441;-71
2022/04/23 14:55:32;;;;;;;17.43;9.00;;;;;;;;;;5092722;28;20437;-71
2022/04/23 14:57:59;;;;;;;6.50;5.90;;;;;;;;;;5092778;28;20856;-71
2022/04/23 15:00:28;;;;;;;7.50;6.77;;;;;;;;;;5093159;28;20444;-71
2022/04/23 15:02:57;;;;;;;7.20;6.60;;;;;;;;;;5092466;28;20450;-70
2022/04/23 15:05:24;;;;;;;6.63;6.03;;;;;;;;;;5093144;28;20498;-71
2022/04/23 15:07:51;;;;;;;6.67;6.07;;;;;;;;;;5092979;28;20802;-71
2022/04/23 15:10:20;;;;;;;8.20;7.37;;;;;;;;;;5092699;28;20520;-71
2022/04/23 15:12:47;;;;;;;20.50;16.43;;;;;;;;;;5092272;28;20443;-71
2022/04/23 15:15:14;;;;;;;8.83;7.90;;;;;;;;;;5092474;28;20782;-71
2022/04/23 15:17:43;;;;;;;21.23;15.20;;;;;;;;;;5092508;28;20440;-71